createdAt,value
2023-01-01T00:01:29.091Z,11.10
2023-01-01T00:03:57.521Z,9.75
2023-01-01T00:06:25.467Z,11.10
2023-01-01T00:09:12.278Z,9.43
2023-01-01T00:11:38.961Z,8.95
2023-01-01T00:14:12.086Z,9.87
2023-01-01T00:16:39.843Z,8.32
2023-01-01T00:19:07.107Z,8.45
2023-01-01T00:21:33.918Z,8.35
2023-01-01T00:24:00.666Z,8.88
2023-01-01T00:26:34.541Z,8.17
2023-01-01T00:29:02.569Z,7.15
2023-01-01T00:31:29.466Z,7.10
2023-01-01T00:33:57.269Z,6.63
2023-01-01T00:36:26.073Z,6.57
2023-01-01T00:38:53.259Z,6.23
2023-01-01T00:41:20.605Z,5.30
2023-01-01T00:43:47.727Z,5.95
2023-01-01T00:46:14.938Z,5.80
2023-01-01T00:48:42.051Z,5.65
2023-01-01T00:51:09.132Z,5.83
2023-01-01T00:53:36.099Z,4.95
2023-01-01T00:56:04.594Z,4.80
2023-01-01T00:58:31.564Z,3.90
2023-01-01T01:00:58.572Z,4.82
2023-01-01T01:03:28.428Z,4.33
2023-01-01T01:05:57.597Z,3.88
2023-01-01T01:08:30.495Z,3.42
2023-01-01T01:11:09.358Z,3.50
2023-01-01T01:13:37.064Z,3.22
2023-01-01T01:16:20.218Z,4.00
2023-01-01T01:18:49.873Z,3.10
2023-01-01T01:21:18.682Z,3.45
2023-01-01T01:23:45.744Z,3.38
2023-01-01T01:26:21.605Z,3.10
2023-01-01T01:28:50.294Z,2.90
2023-01-01T01:31:18.952Z,3.40
2023-01-01T01:33:46.365Z,3.25
2023-01-01T01:36:14.764Z,3.25
2023-01-01T01:38:41.821Z,2.90
2023-01-01T01:41:16.319Z,3.07
2023-01-01T01:44:02.673Z,2.90
2023-01-01T01:46:39.732Z,2.97
2023-01-01T01:49:18.478Z,2.53
2023-01-01T01:51:45.994Z,2.50
2023-01-01T01:54:18.722Z,2.40
2023-01-01T01:56:56.492Z,2.20
2023-01-01T01:59:27.375Z,2.33
2023-01-01T02:02:04.187Z,2.60
2023-01-01T02:04:31.778Z,2.25
2023-01-01T02:06:58.574Z,2.30
2023-01-01T02:09:25.292Z,2.20
2023-01-01T02:11:52.601Z,2.53
2023-01-01T02:14:19.360Z,1.95
2023-01-01T02:16:56.335Z,2.15
2023-01-01T02:19:44.430Z,2.00
2023-01-01T02:22:42.063Z,2.08
2023-01-01T02:25:22.174Z,1.90
2023-01-01T02:28:03.698Z,2.00
2023-01-01T02:30:31.927Z,1.80
2023-01-01T02:33:02.951Z,1.83
2023-01-01T02:35:42.752Z,2.13
2023-01-01T02:38:27.604Z,1.55
2023-01-01T02:41:00.374Z,2.25
2023-01-01T02:43:27.285Z,1.77
2023-01-01T02:45:55.163Z,1.53
2023-01-01T02:48:40.674Z,1.77
2023-01-01T02:51:32.227Z,1.40
2023-01-01T02:54:16.930Z,1.98
2023-01-01T02:56:49.842Z,1.70
2023-01-01T03:00:06.377Z,1.80
2023-01-01T03:02:51.296Z,1.55
2023-01-01T03:05:18.341Z,1.50
2023-01-01T03:08:08.099Z,1.98
2023-01-01T03:10:49.770Z,1.42
2023-01-01T03:13:41.372Z,1.90
2023-01-01T03:16:16.265Z,1.50
2023-01-01T03:19:19.916Z,1.90
2023-01-01T03:21:55.026Z,1.52
2023-01-01T03:24:31.526Z,1.40
2023-01-01T03:27:08.684Z,2.00
2023-01-01T03:29:39.738Z,1.70
2023-01-01T03:32:09.968Z,1.35
2023-01-01T03:34:41.300Z,1.60
2023-01-01T03:37:12.363Z,1.80
2023-01-01T03:39:45.086Z,1.80
2023-01-01T03:42:24.186Z,1.75
2023-01-01T03:44:54.132Z,1.60
2023-01-01T03:47:20.950Z,1.40
2023-01-01T03:49:47.974Z,1.60
2023-01-01T03:52:43.096Z,1.43
2023-01-01T03:55:29.407Z,1.27
2023-01-01T03:58:07.217Z,1.55
2023-01-01T04:00:46.687Z,1.20
2023-01-01T04:03:22.605Z,1.13
2023-01-01T04:05:50.298Z,1.10
2023-01-01T04:08:18.122Z,1.40
2023-01-01T04:10:53.661Z,1.10
2023-01-01T04:13:20.649Z,1.10
2023-01-01T04:15:47.459Z,1.30
2023-01-01T04:18:14.284Z,1.37
2023-01-01T04:20:41.024Z,1.20
2023-01-01T04:23:07.762Z,1.45
2023-01-01T04:25:34.526Z,1.48
2023-01-01T04:28:04.007Z,1.25
2023-01-01T04:30:30.932Z,1.50
2023-01-01T04:32:57.860Z,1.65
2023-01-01T04:35:24.677Z,1.42
2023-01-01T04:37:51.419Z,1.30
2023-01-01T04:40:18.392Z,1.42
2023-01-01T04:42:45.122Z,1.30
2023-01-01T04:45:15.039Z,1.52
2023-01-01T04:47:42.113Z,1.10
2023-01-01T04:50:09.152Z,0.95
2023-01-01T04:52:36.002Z,1.23
2023-01-01T04:55:02.729Z,1.60
2023-01-01T04:57:31.036Z,0.93
2023-01-01T04:59:58.720Z,1.10
2023-01-01T05:02:26.718Z,1.30
2023-01-01T05:04:53.576Z,1.85
2023-01-01T05:07:20.365Z,1.10
2023-01-01T05:09:47.138Z,0.90
2023-01-01T05:12:13.838Z,1.17
2023-01-01T05:14:40.558Z,0.95
2023-01-01T05:17:07.274Z,0.80
2023-01-01T05:19:34.110Z,0.83
2023-01-01T05:22:05.349Z,0.60
2023-01-01T05:24:36.481Z,0.63
2023-01-01T05:27:03.378Z,0.80
2023-01-01T05:29:30.145Z,0.65
2023-01-01T05:31:56.918Z,0.80
2023-01-01T05:34:25.465Z,1.00
2023-01-01T05:36:52.277Z,1.00
2023-01-01T05:39:18.991Z,0.85
2023-01-01T05:41:45.716Z,0.77
2023-01-01T05:44:12.531Z,0.87
2023-01-01T05:46:39.775Z,0.90
2023-01-01T05:49:06.577Z,0.82
2023-01-01T05:53:59.458Z,0.70
2023-01-01T05:56:27.229Z,0.63
2023-01-01T05:58:54.620Z,0.80
2023-01-01T06:01:26.887Z,0.70
2023-01-01T06:03:55.611Z,0.80
2023-01-01T06:06:25.896Z,0.80
2023-01-01T06:08:54.963Z,0.65
2023-01-01T06:11:21.932Z,0.60
2023-01-01T06:13:48.795Z,0.77
2023-01-01T06:16:15.558Z,0.80
2023-01-01T06:18:42.512Z,0.80
2023-01-01T06:21:17.648Z,0.70
2023-01-01T06:23:44.793Z,0.63
2023-01-01T06:26:14.171Z,0.73
2023-01-01T06:28:41.541Z,0.80
2023-01-01T06:31:10.655Z,0.67
2023-01-01T06:33:38.626Z,0.60
2023-01-01T06:36:08.518Z,0.50
2023-01-01T06:38:37.167Z,0.60
2023-01-01T06:41:10.788Z,0.57
2023-01-01T06:43:37.981Z,0.70
2023-01-01T06:46:22.538Z,0.47
2023-01-01T06:48:51.473Z,0.50
2023-01-01T06:51:20.772Z,0.50
2023-01-01T06:53:49.336Z,0.70
2023-01-01T06:56:16.956Z,0.40
2023-01-01T06:58:44.097Z,0.45
2023-01-01T07:01:24.973Z,0.80
2023-01-01T07:04:00.229Z,0.68
2023-01-01T07:06:29.237Z,0.50
2023-01-01T07:08:56.357Z,0.50
2023-01-01T07:11:23.467Z,0.45
2023-01-01T07:13:50.386Z,0.77
2023-01-01T07:16:17.621Z,0.60
2023-01-01T07:18:45.584Z,0.60
2023-01-01T07:21:33.369Z,0.50
2023-01-01T07:24:02.173Z,0.60
2023-01-01T07:26:30.436Z,0.95
2023-01-01T07:29:04.619Z,0.50
2023-01-01T07:31:35.178Z,0.80
2023-01-01T07:34:02.112Z,0.60
2023-01-01T07:36:29.036Z,0.60
2023-01-01T07:38:55.723Z,0.60
2023-01-01T07:41:22.441Z,0.63
2023-01-01T07:43:49.183Z,0.70
2023-01-01T07:46:18.955Z,0.40
2023-01-01T07:48:46.470Z,0.40
2023-01-01T07:51:13.384Z,0.77
2023-01-01T07:53:40.171Z,0.80
2023-01-01T07:56:07.778Z,0.73
2023-01-01T07:58:34.492Z,0.47
2023-01-01T08:01:01.361Z,0.57
2023-01-01T08:03:28.125Z,0.52
2023-01-01T08:05:54.859Z,0.70
2023-01-01T08:08:21.608Z,0.65
2023-01-01T08:10:48.301Z,0.50
2023-01-01T08:13:14.993Z,0.55
2023-01-01T08:15:41.692Z,0.50
2023-01-01T08:18:09.848Z,0.60
2023-01-01T08:20:36.537Z,0.70
2023-01-01T08:23:07.477Z,0.47
2023-01-01T08:25:34.965Z,0.47
2023-01-01T08:28:01.706Z,0.68
2023-01-01T08:30:28.611Z,0.80
2023-01-01T08:32:55.369Z,0.60
2023-01-01T08:35:22.080Z,0.70
2023-01-01T08:37:48.799Z,0.63
2023-01-01T08:40:15.593Z,0.60
2023-01-01T08:42:42.506Z,1.08
2023-01-01T08:45:09.903Z,0.60
2023-01-01T08:47:36.905Z,0.67
2023-01-01T08:50:04.249Z,0.70
2023-01-01T08:52:32.019Z,0.70
2023-01-01T08:55:00.920Z,0.80
2023-01-01T08:57:31.465Z,0.82
2023-01-01T08:59:59.483Z,1.00
2023-01-01T09:02:26.507Z,0.70
2023-01-01T09:04:54.115Z,0.73
2023-01-01T09:07:20.906Z,0.88
2023-01-01T09:09:47.849Z,0.80
2023-01-01T09:12:16.449Z,0.97
2023-01-01T09:14:43.712Z,1.00
2023-01-01T09:17:11.792Z,0.80
2023-01-01T09:19:38.573Z,0.90
2023-01-01T09:22:08.969Z,0.77
2023-01-01T09:24:35.761Z,1.13
2023-01-01T09:27:02.479Z,1.38
2023-01-01T09:29:29.331Z,0.88
2023-01-01T09:31:56.126Z,0.95
2023-01-01T09:34:22.912Z,0.70
2023-01-01T09:36:49.697Z,0.60
2023-01-01T09:39:16.414Z,0.70
2023-01-01T09:41:48.990Z,0.75
2023-01-01T09:44:45.211Z,0.70
2023-01-01T09:47:29.686Z,0.60
2023-01-01T09:50:05.975Z,0.90
2023-01-01T09:52:48.443Z,0.55
2023-01-01T09:55:39.184Z,0.70
2023-01-01T09:58:06.014Z,0.70
2023-01-01T10:00:34.765Z,0.90
2023-01-01T10:03:08.871Z,0.80
2023-01-01T10:05:54.890Z,0.93
2023-01-01T10:08:31.746Z,1.38
2023-01-01T10:11:24.110Z,1.05
2023-01-01T10:13:53.443Z,0.80
2023-01-01T10:16:24.287Z,1.27
2023-01-01T10:18:55.762Z,0.80
2023-01-01T10:21:27.292Z,0.70
2023-01-01T10:23:59.489Z,0.95
2023-01-01T10:26:29.827Z,0.95
2023-01-01T10:29:10.142Z,1.10
2023-01-01T10:31:41.325Z,1.92
2023-01-01T10:34:20.483Z,1.08
2023-01-01T10:36:47.441Z,1.08
2023-01-01T10:39:18.027Z,0.90
2023-01-01T10:41:45.771Z,1.40
2023-01-01T10:44:13.959Z,1.08
2023-01-01T10:46:50.456Z,1.20
2023-01-01T10:49:17.242Z,1.40
2023-01-01T10:51:48.483Z,1.30
2023-01-01T10:54:41.036Z,1.50
2023-01-01T10:57:40.745Z,1.55
2023-01-01T11:00:23.142Z,1.30
2023-01-01T11:03:22.025Z,1.13
2023-01-01T11:06:06.939Z,1.17
2023-01-01T11:08:37.560Z,1.00
2023-01-01T11:11:05.085Z,1.17
2023-01-01T11:13:33.378Z,1.15
2023-01-01T11:16:00.479Z,1.10
2023-01-01T11:18:36.191Z,1.05
2023-01-01T11:21:05.786Z,1.30
2023-01-01T11:23:34.257Z,1.20
2023-01-01T11:26:06.349Z,1.10
2023-01-01T11:28:35.301Z,0.90
2023-01-01T11:31:10.859Z,1.10
2023-01-01T11:33:50.931Z,1.13
2023-01-01T11:36:43.965Z,1.30
2023-01-01T11:39:26.663Z,1.67
2023-01-01T11:41:58.144Z,1.30
2023-01-01T11:44:48.154Z,1.48
2023-01-01T11:47:29.053Z,1.73
2023-01-01T11:50:34.845Z,1.55
2023-01-01T11:53:26.773Z,2.90
2023-01-01T11:56:17.091Z,2.03
2023-01-01T11:59:13.094Z,2.60
2023-01-01T12:02:00.509Z,1.80
2023-01-01T12:04:41.493Z,1.60
2023-01-01T12:07:11.751Z,1.65
2023-01-01T12:10:03.616Z,1.58
2023-01-01T12:12:46.626Z,1.40
2023-01-01T12:15:25.834Z,1.73
2023-01-01T12:18:22.076Z,1.50
2023-01-01T12:20:51.504Z,1.63
2023-01-01T12:23:19.680Z,1.30
2023-01-01T12:25:56.340Z,1.33
2023-01-01T12:29:02.018Z,1.20
2023-01-01T12:31:48.955Z,1.20
2023-01-01T12:34:27.603Z,1.55
2023-01-01T12:37:20.599Z,1.90
2023-01-01T12:40:02.501Z,2.10
2023-01-01T12:42:35.200Z,1.60
2023-01-01T12:45:22.286Z,1.38
2023-01-01T12:48:27.197Z,1.85
2023-01-01T12:51:05.187Z,1.52
2023-01-01T12:53:38.256Z,1.88
2023-01-01T12:56:09.735Z,2.10
2023-01-01T12:58:50.442Z,2.05
2023-01-01T13:01:28.316Z,1.77
2023-01-01T13:04:23.513Z,2.00
2023-01-01T13:07:03.815Z,2.90
2023-01-01T13:09:38.690Z,2.27
2023-01-01T13:12:09.502Z,1.60
2023-01-01T13:14:45.715Z,1.88
2023-01-01T13:17:23.336Z,2.13
2023-01-01T13:19:58.496Z,2.58
2023-01-01T13:22:36.463Z,2.83
2023-01-01T13:25:06.130Z,2.50
2023-01-01T13:28:01.293Z,2.38
2023-01-01T13:30:37.411Z,4.50
2023-01-01T13:33:29.551Z,2.55
2023-01-01T13:36:08.768Z,1.80
2023-01-01T13:38:48.835Z,2.80
2023-01-01T13:41:30.930Z,1.77
2023-01-01T13:44:00.810Z,1.98
2023-01-01T13:46:36.052Z,2.13
2023-01-01T13:49:24.784Z,2.70
2023-01-01T13:52:06.950Z,1.70
2023-01-01T13:54:59.520Z,1.83
2023-01-01T13:57:48.030Z,2.70
2023-01-01T14:00:33.128Z,3.10
2023-01-01T14:03:03.108Z,2.00
2023-01-01T14:06:04.310Z,3.17
2023-01-01T14:08:36.733Z,2.55
2023-01-01T14:11:18.311Z,1.70
2023-01-01T14:13:45.091Z,2.17
2023-01-01T14:16:14.618Z,1.70
2023-01-01T14:18:43.379Z,1.48
2023-01-01T14:21:15.986Z,1.70
2023-01-01T14:23:51.193Z,1.38
2023-01-01T14:26:23.096Z,2.38
2023-01-01T14:28:54.625Z,1.40
2023-01-01T14:31:25.909Z,1.63
2023-01-01T14:33:52.774Z,2.00
2023-01-01T14:36:31.766Z,1.60
2023-01-01T14:39:03.262Z,1.77
2023-01-01T14:41:36.015Z,1.50
2023-01-01T14:44:15.247Z,1.60
2023-01-01T14:46:50.604Z,2.00
2023-01-01T14:49:26.739Z,1.90
2023-01-01T14:52:10.007Z,1.55
2023-01-01T14:54:42.542Z,1.50
2023-01-01T14:57:13.831Z,1.90
2023-01-01T14:59:47.411Z,1.73
2023-01-01T15:02:37.956Z,1.60
2023-01-01T15:05:22.808Z,1.80
2023-01-01T15:07:57.930Z,1.83
2023-01-01T15:10:29.919Z,1.60
2023-01-01T15:12:58.134Z,1.75
2023-01-01T15:15:40.078Z,1.70
2023-01-01T15:18:27.303Z,2.03
2023-01-01T15:20:55.389Z,1.60
2023-01-01T15:23:22.120Z,1.90
2023-01-01T15:25:49.130Z,1.92
2023-01-01T15:28:21.126Z,1.60
2023-01-01T15:30:56.410Z,1.50
2023-01-01T15:33:23.770Z,1.93
2023-01-01T15:35:53.112Z,2.20
2023-01-01T15:38:31.127Z,2.25
2023-01-01T15:40:57.960Z,2.00
2023-01-01T15:43:30.483Z,1.98
2023-01-01T15:46:00.636Z,2.57
2023-01-01T15:48:34.455Z,2.20
2023-01-01T15:51:06.134Z,1.70
2023-01-01T15:53:51.724Z,1.90
2023-01-01T15:56:25.784Z,1.90
2023-01-01T15:59:08.767Z,1.90
2023-01-01T16:01:39.687Z,2.08
2023-01-01T16:04:29.318Z,1.80
2023-01-01T16:06:57.969Z,2.00
2023-01-01T16:09:24.784Z,2.00
2023-01-01T16:11:57.346Z,2.00
2023-01-01T16:14:24.542Z,1.70
2023-01-01T16:16:57.949Z,2.20
2023-01-01T16:19:25.206Z,2.17
2023-01-01T16:21:51.961Z,2.15
2023-01-01T16:24:20.114Z,1.73
2023-01-01T16:26:48.145Z,2.13
2023-01-01T16:29:15.086Z,1.90
2023-01-01T16:31:42.809Z,2.25
2023-01-01T16:34:14.690Z,3.20
2023-01-01T16:36:42.445Z,3.00
2023-01-01T16:39:09.155Z,3.35
2023-01-01T16:41:36.170Z,3.20
2023-01-01T16:44:02.993Z,2.65
2023-01-01T16:46:29.907Z,2.55
2023-01-01T16:48:56.788Z,2.80
2023-01-01T16:51:27.987Z,3.25
2023-01-01T16:53:55.392Z,2.70
2023-01-01T16:56:22.062Z,2.92
2023-01-01T16:58:52.117Z,2.92
2023-01-01T17:01:21.339Z,3.10
2023-01-01T17:03:48.392Z,2.83
2023-01-01T17:06:15.281Z,2.95
2023-01-01T17:08:42.042Z,2.92
2023-01-01T17:11:14.006Z,2.53
2023-01-01T17:13:45.921Z,2.23
2023-01-01T17:16:17.876Z,2.10
2023-01-01T17:21:38.245Z,2.03
2023-01-01T17:24:05.371Z,2.85
2023-01-01T17:26:32.228Z,3.50
2023-01-01T17:29:01.242Z,3.10
2023-01-01T17:31:29.140Z,2.58
2023-01-01T17:33:56.284Z,2.70
2023-01-01T17:36:23.061Z,2.85
2023-01-01T17:38:50.038Z,3.07
2023-01-01T17:41:17.747Z,3.10
2023-01-01T17:43:47.267Z,3.08
2023-01-01T17:46:26.492Z,3.72
2023-01-01T17:48:53.619Z,3.20
2023-01-01T17:51:20.863Z,3.87
2023-01-01T17:53:48.276Z,4.00
2023-01-01T17:56:17.397Z,4.07
2023-01-01T17:58:45.833Z,4.03
2023-01-01T18:01:23.073Z,4.38
2023-01-01T18:03:55.421Z,4.30
2023-01-01T18:06:22.965Z,3.38
2023-01-01T18:08:55.576Z,3.58
2023-01-01T18:11:22.797Z,3.50
2023-01-01T18:13:49.551Z,3.72
2023-01-01T18:16:16.467Z,3.80
2023-01-01T18:18:43.305Z,3.75
2023-01-01T18:21:20.857Z,3.47
2023-01-01T18:23:52.161Z,3.40
2023-01-01T18:26:20.644Z,3.28
2023-01-01T18:29:01.378Z,3.20
2023-01-01T18:31:30.489Z,3.70
2023-01-01T18:33:57.476Z,3.15
2023-01-01T18:36:28.936Z,3.63
2023-01-01T18:38:58.999Z,3.38
2023-01-01T18:41:31.540Z,3.60
2023-01-01T18:44:00.003Z,3.58
2023-01-01T18:46:29.241Z,3.20
2023-01-01T18:48:59.877Z,4.07
2023-01-01T18:51:26.956Z,4.30
2023-01-01T18:53:58.215Z,4.30
2023-01-01T18:56:25.476Z,4.10
2023-01-01T18:58:54.987Z,3.50
2023-01-01T19:01:23.482Z,3.47
2023-01-01T19:03:52.664Z,3.30
2023-01-01T19:06:33.071Z,3.27
2023-01-01T19:09:03.538Z,3.33
2023-01-01T19:11:30.616Z,3.38
2023-01-01T19:14:05.755Z,3.25
2023-01-01T19:16:33.225Z,3.15
2023-01-01T19:19:15.292Z,3.33
2023-01-01T19:21:45.271Z,3.33
2023-01-01T19:24:21.817Z,3.40
2023-01-01T19:26:55.841Z,3.45
2023-01-01T19:29:24.580Z,3.60
2023-01-01T19:31:53.651Z,3.60
2023-01-01T19:34:21.448Z,3.58
2023-01-01T19:36:49.069Z,3.47
2023-01-01T19:39:16.768Z,3.67
2023-01-01T19:41:43.824Z,3.40
2023-01-01T19:44:10.854Z,3.80
2023-01-01T19:46:37.653Z,3.30
2023-01-01T19:49:04.847Z,3.55
2023-01-01T19:51:31.572Z,3.70
2023-01-01T19:53:58.258Z,3.60
2023-01-01T19:56:25.080Z,3.83
2023-01-01T19:58:52.073Z,3.50
2023-01-01T20:01:19.020Z,3.50
2023-01-01T20:03:55.422Z,3.70
2023-01-01T20:06:23.229Z,3.70
2023-01-01T20:08:49.946Z,3.73
2023-01-01T20:11:16.991Z,3.80
2023-01-01T20:13:43.748Z,3.90
2023-01-01T20:16:10.550Z,3.72
2023-01-01T20:18:37.430Z,4.03
2023-01-01T20:21:26.288Z,4.10
2023-01-01T20:23:53.475Z,3.75
2023-01-01T20:26:20.840Z,4.10
2023-01-01T20:29:06.179Z,4.60
2023-01-01T20:31:32.955Z,4.50
2023-01-01T20:33:59.762Z,4.73
2023-01-01T20:36:45.083Z,4.50
2023-01-01T20:39:11.913Z,4.30
2023-01-01T20:41:38.775Z,4.15
2023-01-01T20:44:05.782Z,4.07
2023-01-01T20:46:32.573Z,3.90
2023-01-01T20:48:59.596Z,3.70
2023-01-01T20:51:26.374Z,4.30
2023-01-01T20:53:53.082Z,3.70
2023-01-01T20:56:20.194Z,3.70
2023-01-01T20:58:50.174Z,4.00
2023-01-01T21:01:20.081Z,3.90
2023-01-01T21:03:47.207Z,3.50
2023-01-01T21:06:18.467Z,3.90
2023-01-01T21:08:48.914Z,4.32
2023-01-01T21:11:15.813Z,4.00
2023-01-01T21:13:44.625Z,3.95
2023-01-01T21:16:31.124Z,3.90
2023-01-01T21:18:58.990Z,4.40
2023-01-01T21:21:29.514Z,4.05
2023-01-01T21:24:06.239Z,3.80
2023-01-01T21:26:36.838Z,4.40
2023-01-01T21:29:14.218Z,4.00
2023-01-01T21:31:42.839Z,4.22
2023-01-01T21:34:39.871Z,4.13
2023-01-01T21:37:42.344Z,3.77
2023-01-01T21:40:31.584Z,3.70
2023-01-01T21:43:24.373Z,3.90
2023-01-01T21:45:51.568Z,3.80
2023-01-01T21:48:18.337Z,4.10
2023-01-01T21:50:49.905Z,4.00
2023-01-01T21:53:23.074Z,3.88
2023-01-01T21:55:52.528Z,4.68
2023-01-01T21:58:38.741Z,4.65
2023-01-01T22:01:20.796Z,4.50
2023-01-01T22:04:11.050Z,4.73
2023-01-01T22:06:50.727Z,4.85
2023-01-01T22:09:24.536Z,4.22
2023-01-01T22:11:53.672Z,4.13
2023-01-01T22:14:31.244Z,4.60
2023-01-01T22:16:58.154Z,4.53
2023-01-01T22:19:31.303Z,4.70
2023-01-01T22:21:58.110Z,4.60
2023-01-01T22:24:24.779Z,4.57
2023-01-01T22:26:51.578Z,4.68
2023-01-01T22:29:24.161Z,5.00
2023-01-01T22:32:02.873Z,5.13
2023-01-01T22:34:29.590Z,5.00
2023-01-01T22:36:56.736Z,5.40
2023-01-01T22:39:30.509Z,5.60
2023-01-01T22:41:57.412Z,5.13
2023-01-01T22:44:26.915Z,5.85
2023-01-01T22:46:58.633Z,5.75
2023-01-01T22:49:50.831Z,5.70
2023-01-01T22:52:17.882Z,5.40
2023-01-01T22:54:44.635Z,5.20
2023-01-01T22:57:11.378Z,4.95
2023-01-01T22:59:38.050Z,4.55
2023-01-01T23:02:06.591Z,5.32
2023-01-01T23:04:33.592Z,5.07
2023-01-01T23:07:00.538Z,5.13
2023-01-01T23:09:27.714Z,5.25
2023-01-01T23:11:55.859Z,5.20
2023-01-01T23:14:52.694Z,4.93
2023-01-01T23:17:19.411Z,4.78
2023-01-01T23:19:46.210Z,4.73
2023-01-01T23:22:14.558Z,4.82
2023-01-01T23:24:41.310Z,5.10
2023-01-01T23:27:09.441Z,5.00
2023-01-01T23:29:36.462Z,5.13
2023-01-01T23:32:03.648Z,4.60
2023-01-01T23:34:30.623Z,5.03
2023-01-01T23:36:58.389Z,5.32
2023-01-01T23:39:25.141Z,4.80
2023-01-01T23:41:51.880Z,5.30
2023-01-01T23:44:18.713Z,5.10
2023-01-01T23:46:45.936Z,5.55
2023-01-01T23:49:13.173Z,5.25
2023-01-01T23:51:39.939Z,5.10
2023-01-01T23:54:07.122Z,5.28
2023-01-01T23:56:34.051Z,5.33
2023-01-01T23:59:00.816Z,5.07
